sensor_id;sensor_type;location;lat;lon;timestamp;P1;durP1;ratioP1;P2;durP2;ratioP2
23362;SDS011;11853;48.080;11.960;2023-11-22T00:00:29;10.18;;;8.68;;
23362;SDS011;11853;48.080;11.960;2023-11-22T00:02:54;10.55;;;9.52;;
23362;SDS011;11853;48.080;11.960;2023-11-22T00:05:20;10.40;;;9.30;;
23362;SDS011;11853;48.080;11.960;2023-11-22T00:07:46;11.63;;;10.07;;
23362;SDS011;11853;48.080;11.960;2023-11-22T00:10:12;10.23;;;9.00;;
23362;SDS011;11853;48.080;11.960;2023-11-22T00:12:38;10.98;;;9.18;;
23362;SDS011;11853;48.080;11.960;2023-11-22T00:15:05;10.77;;;9.55;;
23362;SDS011;11853;48.080;11.960;2023-11-22T00:17:31;10.65;;;9.55;;
23362;SDS011;11853;48.080;11.960;2023-11-22T00:19:58;10.48;;;9.43;;
23362;SDS011;11853;48.080;11.960;2023-11-22T00:22:25;10.60;;;9.60;;
23362;SDS011;11853;48.080;11.960;2023-11-22T00:24:52;12.05;;;9.32;;
23362;SDS011;11853;48.080;11.960;2023-11-22T00:27:18;10.32;;;8.63;;
23362;SDS011;11853;48.080;11.960;2023-11-22T00:29:44;11.32;;;9.52;;
23362;SDS011;11853;48.080;11.960;2023-11-22T00:32:11;10.77;;;8.90;;
23362;SDS011;11853;48.080;11.960;2023-11-22T00:34:37;9.68;;;8.07;;
23362;SDS011;11853;48.080;11.960;2023-11-22T00:37:02;10.35;;;9.25;;
23362;SDS011;11853;48.080;11.960;2023-11-22T00:39:28;9.57;;;8.50;;
23362;SDS011;11853;48.080;11.960;2023-11-22T00:41:54;9.45;;;8.25;;
23362;SDS011;11853;48.080;11.960;2023-11-22T00:44:21;10.30;;;8.57;;
23362;SDS011;11853;48.080;11.960;2023-11-22T00:46:46;8.60;;;7.70;;
23362;SDS011;11853;48.080;11.960;2023-11-22T00:49:12;8.40;;;7.60;;
23362;SDS011;11853;48.080;11.960;2023-11-22T00:51:38;9.05;;;8.05;;
23362;SDS011;11853;48.080;11.960;2023-11-22T00:54:04;8.48;;;7.60;;
23362;SDS011;11853;48.080;11.960;2023-11-22T00:56:30;9.02;;;8.13;;
23362;SDS011;11853;48.080;11.960;2023-11-22T00:58:56;8.88;;;8.02;;
23362;SDS011;11853;48.080;11.960;2023-11-22T01:01:25;8.73;;;7.55;;
23362;SDS011;11853;48.080;11.960;2023-11-22T01:03:51;9.93;;;8.45;;
23362;SDS011;11853;48.080;11.960;2023-11-22T01:06:17;9.13;;;8.05;;
23362;SDS011;11853;48.080;11.960;2023-11-22T01:08:43;9.07;;;8.20;;
23362;SDS011;11853;48.080;11.960;2023-11-22T01:11:09;12.02;;;9.18;;
23362;SDS011;11853;48.080;11.960;2023-11-22T01:13:34;8.85;;;7.95;;
23362;SDS011;11853;48.080;11.960;2023-11-22T01:16:07;11.68;;;9.13;;
23362;SDS011;11853;48.080;11.960;2023-11-22T01:18:34;9.52;;;8.55;;
23362;SDS011;11853;48.080;11.960;2023-11-22T01:21:00;9.75;;;8.73;;
23362;SDS011;11853;48.080;11.960;2023-11-22T01:23:26;9.23;;;8.02;;
23362;SDS011;11853;48.080;11.960;2023-11-22T01:25:53;9.73;;;8.50;;
23362;SDS011;11853;48.080;11.960;2023-11-22T01:28:19;10.20;;;8.30;;
23362;SDS011;11853;48.080;11.960;2023-11-22T01:30:45;12.95;;;8.25;;
23362;SDS011;11853;48.080;11.960;2023-11-22T01:33:11;10.50;;;8.25;;
23362;SDS011;11853;48.080;11.960;2023-11-22T01:35:37;8.90;;;8.00;;
23362;SDS011;11853;48.080;11.960;2023-11-22T01:38:03;10.43;;;8.40;;
23362;SDS011;11853;48.080;11.960;2023-11-22T01:40:30;8.98;;;8.07;;
23362;SDS011;11853;48.080;11.960;2023-11-22T01:42:57;7.68;;;6.97;;
23362;SDS011;11853;48.080;11.960;2023-11-22T01:45:23;8.38;;;7.18;;
23362;SDS011;11853;48.080;11.960;2023-11-22T01:47:48;9.02;;;7.63;;
23362;SDS011;11853;48.080;11.960;2023-11-22T01:50:15;7.93;;;6.75;;
23362;SDS011;11853;48.080;11.960;2023-11-22T01:52:41;7.65;;;6.90;;
23362;SDS011;11853;48.080;11.960;2023-11-22T01:55:08;6.38;;;5.80;;
23362;SDS011;11853;48.080;11.960;2023-11-22T01:57:34;6.05;;;5.45;;
23362;SDS011;11853;48.080;11.960;2023-11-22T02:00:01;5.43;;;5.03;;
23362;SDS011;11853;48.080;11.960;2023-11-22T02:02:35;4.60;;;4.20;;
23362;SDS011;11853;48.080;11.960;2023-11-22T02:05:01;4.13;;;3.78;;
23362;SDS011;11853;48.080;11.960;2023-11-22T02:07:27;3.92;;;3.53;;
23362;SDS011;11853;48.080;11.960;2023-11-22T02:09:53;4.78;;;4.38;;
23362;SDS011;11853;48.080;11.960;2023-11-22T02:12:19;5.20;;;4.70;;
23362;SDS011;11853;48.080;11.960;2023-11-22T02:14:45;5.68;;;5.10;;
23362;SDS011;11853;48.080;11.960;2023-11-22T02:17:11;6.30;;;5.70;;
23362;SDS011;11853;48.080;11.960;2023-11-22T02:19:37;5.35;;;4.88;;
23362;SDS011;11853;48.080;11.960;2023-11-22T02:22:03;5.07;;;4.57;;
23362;SDS011;11853;48.080;11.960;2023-11-22T02:24:29;4.47;;;4.07;;
23362;SDS011;11853;48.080;11.960;2023-11-22T02:26:54;4.20;;;3.80;;
23362;SDS011;11853;48.080;11.960;2023-11-22T02:29:20;3.72;;;3.42;;
23362;SDS011;11853;48.080;11.960;2023-11-22T02:31:47;3.70;;;3.40;;
23362;SDS011;11853;48.080;11.960;2023-11-22T02:34:13;4.03;;;3.72;;
23362;SDS011;11853;48.080;11.960;2023-11-22T02:36:43;3.75;;;3.45;;
23362;SDS011;11853;48.080;11.960;2023-11-22T02:39:09;4.13;;;3.72;;
23362;SDS011;11853;48.080;11.960;2023-11-22T02:41:35;4.85;;;4.25;;
23362;SDS011;11853;48.080;11.960;2023-11-22T02:44:00;4.78;;;3.92;;
23362;SDS011;11853;48.080;11.960;2023-11-22T02:46:26;4.50;;;4.15;;
23362;SDS011;11853;48.080;11.960;2023-11-22T02:48:52;4.35;;;3.95;;
23362;SDS011;11853;48.080;11.960;2023-11-22T02:51:19;3.83;;;3.50;;
23362;SDS011;11853;48.080;11.960;2023-11-22T02:53:47;3.72;;;3.42;;
23362;SDS011;11853;48.080;11.960;2023-11-22T02:56:13;4.03;;;3.72;;
23362;SDS011;11853;48.080;11.960;2023-11-22T02:58:40;4.05;;;3.75;;
23362;SDS011;11853;48.080;11.960;2023-11-22T03:01:06;4.28;;;3.75;;
23362;SDS011;11853;48.080;11.960;2023-11-22T03:03:33;4.13;;;3.83;;
23362;SDS011;11853;48.080;11.960;2023-11-22T03:05:59;4.07;;;3.78;;
23362;SDS011;11853;48.080;11.960;2023-11-22T03:08:24;3.97;;;3.67;;
23362;SDS011;11853;48.080;11.960;2023-11-22T03:10:50;4.47;;;4.07;;
23362;SDS011;11853;48.080;11.960;2023-11-22T03:13:16;4.70;;;4.30;;
23362;SDS011;11853;48.080;11.960;2023-11-22T03:15:42;5.07;;;4.65;;
23362;SDS011;11853;48.080;11.960;2023-11-22T03:18:08;4.78;;;4.38;;
23362;SDS011;11853;48.080;11.960;2023-11-22T03:20:33;5.07;;;4.68;;
23362;SDS011;11853;48.080;11.960;2023-11-22T03:22:59;5.10;;;4.70;;
23362;SDS011;11853;48.080;11.960;2023-11-22T03:25:25;4.80;;;4.40;;
23362;SDS011;11853;48.080;11.960;2023-11-22T03:27:51;6.15;;;4.57;;
23362;SDS011;11853;48.080;11.960;2023-11-22T03:30:17;5.13;;;4.60;;
23362;SDS011;11853;48.080;11.960;2023-11-22T03:32:43;5.20;;;4.70;;
23362;SDS011;11853;48.080;11.960;2023-11-22T03:35:09;5.40;;;4.90;;
23362;SDS011;11853;48.080;11.960;2023-11-22T03:37:35;5.68;;;4.90;;
23362;SDS011;11853;48.080;11.960;2023-11-22T03:40:01;4.95;;;4.45;;
23362;SDS011;11853;48.080;11.960;2023-11-22T03:42:28;5.82;;;5.22;;
23362;SDS011;11853;48.080;11.960;2023-11-22T03:44:53;6.20;;;5.03;;
23362;SDS011;11853;48.080;11.960;2023-11-22T03:47:19;6.47;;;4.82;;
23362;SDS011;11853;48.080;11.960;2023-11-22T03:49:45;6.10;;;4.85;;
23362;SDS011;11853;48.080;11.960;2023-11-22T03:52:11;5.57;;;5.07;;
23362;SDS011;11853;48.080;11.960;2023-11-22T03:54:37;6.13;;;5.53;;
23362;SDS011;11853;48.080;11.960;2023-11-22T03:57:04;6.50;;;5.90;;
23362;SDS011;11853;48.080;11.960;2023-11-22T03:59:30;5.68;;;5.18;;
23362;SDS011;11853;48.080;11.960;2023-11-22T04:01:58;5.53;;;5.03;;
23362;SDS011;11853;48.080;11.960;2023-11-22T04:04:24;5.25;;;4.70;;
23362;SDS011;11853;48.080;11.960;2023-11-22T04:06:50;5.45;;;4.95;;
23362;SDS011;11853;48.080;11.960;2023-11-22T04:09:15;5.78;;;5.25;;
23362;SDS011;11853;48.080;11.960;2023-11-22T04:11:45;5.75;;;5.22;;
23362;SDS011;11853;48.080;11.960;2023-11-22T04:14:12;5.82;;;5.32;;
23362;SDS011;11853;48.080;11.960;2023-11-22T04:16:38;6.32;;;4.70;;
23362;SDS011;11853;48.080;11.960;2023-11-22T04:19:03;5.82;;;5.22;;
23362;SDS011;11853;48.080;11.960;2023-11-22T04:21:29;5.95;;;5.45;;
23362;SDS011;11853;48.080;11.960;2023-11-22T04:23:55;5.50;;;5.00;;
23362;SDS011;11853;48.080;11.960;2023-11-22T04:26:21;5.50;;;5.00;;
23362;SDS011;11853;48.080;11.960;2023-11-22T04:28:46;5.68;;;5.18;;
23362;SDS011;11853;48.080;11.960;2023-11-22T04:31:12;6.15;;;5.55;;
23362;SDS011;11853;48.080;11.960;2023-11-22T04:33:38;6.80;;;5.78;;
23362;SDS011;11853;48.080;11.960;2023-11-22T04:36:04;5.82;;;5.32;;
23362;SDS011;11853;48.080;11.960;2023-11-22T04:38:30;5.75;;;5.25;;
23362;SDS011;11853;48.080;11.960;2023-11-22T04:40:55;5.50;;;5.00;;
23362;SDS011;11853;48.080;11.960;2023-11-22T04:43:21;5.50;;;5.00;;
23362;SDS011;11853;48.080;11.960;2023-11-22T04:45:47;5.53;;;5.03;;
23362;SDS011;11853;48.080;11.960;2023-11-22T04:48:12;5.53;;;5.03;;
23362;SDS011;11853;48.080;11.960;2023-11-22T04:50:41;5.40;;;4.88;;
23362;SDS011;11853;48.080;11.960;2023-11-22T04:53:08;5.75;;;5.25;;
23362;SDS011;11853;48.080;11.960;2023-11-22T04:55:34;6.05;;;5.45;;
23362;SDS011;11853;48.080;11.960;2023-11-22T04:58:00;5.97;;;5.47;;
23362;SDS011;11853;48.080;11.960;2023-11-22T05:00:25;5.93;;;5.32;;
23362;SDS011;11853;48.080;11.960;2023-11-22T05:02:51;6.38;;;5.78;;
23362;SDS011;11853;48.080;11.960;2023-11-22T05:05:16;5.72;;;5.20;;
23362;SDS011;11853;48.080;11.960;2023-11-22T05:07:42;6.07;;;5.55;;
23362;SDS011;11853;48.080;11.960;2023-11-22T05:10:09;6.88;;;5.68;;
23362;SDS011;11853;48.080;11.960;2023-11-22T05:12:35;5.60;;;5.10;;
23362;SDS011;11853;48.080;11.960;2023-11-22T05:15:08;5.78;;;5.18;;
23362;SDS011;11853;48.080;11.960;2023-11-22T05:17:34;5.63;;;5.05;;
23362;SDS011;11853;48.080;11.960;2023-11-22T05:20:00;5.65;;;5.05;;
23362;SDS011;11853;48.080;11.960;2023-11-22T05:22:25;5.57;;;5.07;;
23362;SDS011;11853;48.080;11.960;2023-11-22T05:24:51;5.82;;;5.30;;
23362;SDS011;11853;48.080;11.960;2023-11-22T05:27:17;5.78;;;5.28;;
23362;SDS011;11853;48.080;11.960;2023-11-22T05:29:43;5.90;;;5.32;;
23362;SDS011;11853;48.080;11.960;2023-11-22T05:32:08;5.20;;;4.70;;
23362;SDS011;11853;48.080;11.960;2023-11-22T05:34:34;6.00;;;5.40;;
23362;SDS011;11853;48.080;11.960;2023-11-22T05:37:00;5.72;;;5.22;;
23362;SDS011;11853;48.080;11.960;2023-11-22T05:39:25;5.07;;;4.60;;
23362;SDS011;11853;48.080;11.960;2023-11-22T05:41:52;5.60;;;5.10;;
23362;SDS011;11853;48.080;11.960;2023-11-22T05:44:18;6.15;;;5.55;;
23362;SDS011;11853;48.080;11.960;2023-11-22T05:46:44;5.55;;;5.07;;
23362;SDS011;11853;48.080;11.960;2023-11-22T05:49:10;7.22;;;6.03;;
23362;SDS011;11853;48.080;11.960;2023-11-22T05:51:35;6.43;;;5.82;;
23362;SDS011;11853;48.080;11.960;2023-11-22T05:54:02;6.53;;;5.90;;
23362;SDS011;11853;48.080;11.960;2023-11-22T05:56:28;6.10;;;5.50;;
23362;SDS011;11853;48.080;11.960;2023-11-22T05:58:54;5.75;;;5.25;;
23362;SDS011;11853;48.080;11.960;2023-11-22T06:01:20;6.00;;;5.38;;
23362;SDS011;11853;48.080;11.960;2023-11-22T06:03:46;5.90;;;5.32;;
23362;SDS011;11853;48.080;11.960;2023-11-22T06:06:12;6.57;;;5.90;;
23362;SDS011;11853;48.080;11.960;2023-11-22T06:08:39;6.57;;;5.88;;
23362;SDS011;11853;48.080;11.960;2023-11-22T06:11:05;9.00;;;6.13;;
23362;SDS011;11853;48.080;11.960;2023-11-22T06:13:31;6.55;;;5.93;;
23362;SDS011;11853;48.080;11.960;2023-11-22T06:15:57;7.40;;;6.00;;
23362;SDS011;11853;48.080;11.960;2023-11-22T06:18:22;6.57;;;5.97;;
23362;SDS011;11853;48.080;11.960;2023-11-22T06:20:54;6.88;;;5.75;;
23362;SDS011;11853;48.080;11.960;2023-11-22T06:23:20;7.13;;;6.13;;
23362;SDS011;11853;48.080;11.960;2023-11-22T06:25:46;7.15;;;5.95;;
23362;SDS011;11853;48.080;11.960;2023-11-22T06:28:12;6.93;;;5.88;;
23362;SDS011;11853;48.080;11.960;2023-11-22T06:30:37;8.27;;;6.72;;
23362;SDS011;11853;48.080;11.960;2023-11-22T06:33:03;7.70;;;6.07;;
23362;SDS011;11853;48.080;11.960;2023-11-22T06:35:28;8.55;;;6.53;;
23362;SDS011;11853;48.080;11.960;2023-11-22T06:37:54;9.73;;;6.32;;
23362;SDS011;11853;48.080;11.960;2023-11-22T06:40:20;7.57;;;6.07;;
23362;SDS011;11853;48.080;11.960;2023-11-22T06:42:48;7.43;;;6.03;;
23362;SDS011;11853;48.080;11.960;2023-11-22T06:45:14;6.93;;;5.88;;
23362;SDS011;11853;48.080;11.960;2023-11-22T06:47:40;6.18;;;5.32;;
23362;SDS011;11853;48.080;11.960;2023-11-22T06:50:09;8.88;;;6.93;;
23362;SDS011;11853;48.080;11.960;2023-11-22T06:52:36;7.45;;;6.65;;
23362;SDS011;11853;48.080;11.960;2023-11-22T06:55:03;7.82;;;6.10;;
23362;SDS011;11853;48.080;11.960;2023-11-22T06:57:29;7.45;;;6.18;;
23362;SDS011;11853;48.080;11.960;2023-11-22T06:59:55;6.70;;;5.95;;
23362;SDS011;11853;48.080;11.960;2023-11-22T07:02:21;6.65;;;5.53;;
23362;SDS011;11853;48.080;11.960;2023-11-22T07:04:47;6.25;;;5.65;;
23362;SDS011;11853;48.080;11.960;2023-11-22T07:07:13;6.85;;;5.38;;
23362;SDS011;11853;48.080;11.960;2023-11-22T07:09:43;5.93;;;5.03;;
23362;SDS011;11853;48.080;11.960;2023-11-22T07:12:09;5.63;;;5.10;;
23362;SDS011;11853;48.080;11.960;2023-11-22T07:14:35;5.03;;;4.53;;
23362;SDS011;11853;48.080;11.960;2023-11-22T07:17:01;7.75;;;4.35;;
23362;SDS011;11853;48.080;11.960;2023-11-22T07:19:27;5.10;;;4.53;;
23362;SDS011;11853;48.080;11.960;2023-11-22T07:21:53;5.72;;;4.65;;
23362;SDS011;11853;48.080;11.960;2023-11-22T07:24:19;5.28;;;4.70;;
23362;SDS011;11853;48.080;11.960;2023-11-22T07:26:45;5.03;;;4.53;;
23362;SDS011;11853;48.080;11.960;2023-11-22T07:29:12;5.68;;;5.07;;
23362;SDS011;11853;48.080;11.960;2023-11-22T07:31:38;6.65;;;5.30;;
23362;SDS011;11853;48.080;11.960;2023-11-22T07:34:04;5.28;;;4.78;;
23362;SDS011;11853;48.080;11.960;2023-11-22T07:36:31;4.80;;;4.40;;
23362;SDS011;11853;48.080;11.960;2023-11-22T07:38:57;6.03;;;4.40;;
23362;SDS011;11853;48.080;11.960;2023-11-22T07:41:22;5.25;;;4.75;;
23362;SDS011;11853;48.080;11.960;2023-11-22T07:43:51;5.63;;;4.43;;
23362;SDS011;11853;48.080;11.960;2023-11-22T07:46:18;5.13;;;4.72;;
23362;SDS011;11853;48.080;11.960;2023-11-22T07:48:45;5.78;;;4.18;;
23362;SDS011;11853;48.080;11.960;2023-11-22T07:51:12;5.13;;;4.40;;
23362;SDS011;11853;48.080;11.960;2023-11-22T07:53:50;5.22;;;4.70;;
23362;SDS011;11853;48.080;11.960;2023-11-22T07:56:16;4.80;;;4.35;;
23362;SDS011;11853;48.080;11.960;2023-11-22T07:58:42;4.78;;;4.38;;
23362;SDS011;11853;48.080;11.960;2023-11-22T08:01:07;4.60;;;4.20;;
23362;SDS011;11853;48.080;11.960;2023-11-22T08:03:39;5.20;;;4.70;;
23362;SDS011;11853;48.080;11.960;2023-11-22T08:06:10;4.80;;;4.40;;
23362;SDS011;11853;48.080;11.960;2023-11-22T08:08:36;4.78;;;4.32;;
23362;SDS011;11853;48.080;11.960;2023-11-22T08:11:05;5.38;;;4.57;;
23362;SDS011;11853;48.080;11.960;2023-11-22T08:13:40;7.18;;;6.47;;
23362;SDS011;11853;48.080;11.960;2023-11-22T08:16:08;5.57;;;5.05;;
23362;SDS011;11853;48.080;11.960;2023-11-22T08:18:34;6.65;;;4.78;;
23362;SDS011;11853;48.080;11.960;2023-11-22T08:21:00;15.80;;;10.77;;
23362;SDS011;11853;48.080;11.960;2023-11-22T08:23:25;5.15;;;4.65;;
23362;SDS011;11853;48.080;11.960;2023-11-22T08:25:57;5.13;;;4.63;;
23362;SDS011;11853;48.080;11.960;2023-11-22T08:28:24;4.45;;;4.05;;
23362;SDS011;11853;48.080;11.960;2023-11-22T08:30:51;7.35;;;4.18;;
23362;SDS011;11853;48.080;11.960;2023-11-22T08:33:17;5.47;;;4.03;;
23362;SDS011;11853;48.080;11.960;2023-11-22T08:35:42;7.45;;;4.82;;
23362;SDS011;11853;48.080;11.960;2023-11-22T08:38:09;4.85;;;4.10;;
23362;SDS011;11853;48.080;11.960;2023-11-22T08:40:35;5.93;;;4.00;;
23362;SDS011;11853;48.080;11.960;2023-11-22T08:43:05;4.90;;;3.90;;
23362;SDS011;11853;48.080;11.960;2023-11-22T08:45:30;4.63;;;4.13;;
23362;SDS011;11853;48.080;11.960;2023-11-22T08:47:56;3.53;;;3.22;;
23362;SDS011;11853;48.080;11.960;2023-11-22T08:50:22;4.32;;;3.95;;
23362;SDS011;11853;48.080;11.960;2023-11-22T08:52:48;3.47;;;3.17;;
23362;SDS011;11853;48.080;11.960;2023-11-22T08:55:18;4.43;;;4.00;;
23362;SDS011;11853;48.080;11.960;2023-11-22T08:57:47;3.33;;;3.03;;
23362;SDS011;11853;48.080;11.960;2023-11-22T09:00:16;3.70;;;3.40;;
23362;SDS011;11853;48.080;11.960;2023-11-22T09:02:47;3.97;;;3.65;;
23362;SDS011;11853;48.080;11.960;2023-11-22T09:05:14;4.10;;;3.80;;
23362;SDS011;11853;48.080;11.960;2023-11-22T09:07:42;3.83;;;3.53;;
23362;SDS011;11853;48.080;11.960;2023-11-22T09:10:09;4.05;;;3.65;;
23362;SDS011;11853;48.080;11.960;2023-11-22T09:12:39;4.05;;;3.67;;
23362;SDS011;11853;48.080;11.960;2023-11-22T09:15:10;3.53;;;3.22;;
23362;SDS011;11853;48.080;11.960;2023-11-22T09:17:38;3.90;;;3.60;;
23362;SDS011;11853;48.080;11.960;2023-11-22T09:20:11;4.35;;;3.50;;
23362;SDS011;11853;48.080;11.960;2023-11-22T09:22:41;3.78;;;3.47;;
23362;SDS011;11853;48.080;11.960;2023-11-22T09:25:16;3.60;;;3.30;;
23362;SDS011;11853;48.080;11.960;2023-11-22T09:27:44;3.80;;;3.50;;
23362;SDS011;11853;48.080;11.960;2023-11-22T09:30:15;3.60;;;3.33;;
23362;SDS011;11853;48.080;11.960;2023-11-22T09:33:11;3.53;;;3.33;;
23362;SDS011;11853;48.080;11.960;2023-11-22T09:35:40;3.53;;;3.33;;
23362;SDS011;11853;48.080;11.960;2023-11-22T09:38:07;3.58;;;3.28;;
23362;SDS011;11853;48.080;11.960;2023-11-22T09:40:38;3.92;;;3.63;;
23362;SDS011;11853;48.080;11.960;2023-11-22T09:43:06;3.60;;;3.40;;
23362;SDS011;11853;48.080;11.960;2023-11-22T09:45:32;4.05;;;3.75;;
23362;SDS011;11853;48.080;11.960;2023-11-22T09:47:58;4.38;;;4.03;;
23362;SDS011;11853;48.080;11.960;2023-11-22T09:53:12;4.75;;;4.15;;
23362;SDS011;11853;48.080;11.960;2023-11-22T09:55:44;3.63;;;3.33;;
23362;SDS011;11853;48.080;11.960;2023-11-22T09:58:11;3.80;;;3.50;;
23362;SDS011;11853;48.080;11.960;2023-11-22T10:00:38;3.70;;;3.33;;
23362;SDS011;11853;48.080;11.960;2023-11-22T10:03:06;3.28;;;3.05;;
23362;SDS011;11853;48.080;11.960;2023-11-22T10:05:32;3.60;;;3.30;;
23362;SDS011;11853;48.080;11.960;2023-11-22T10:07:58;4.05;;;3.75;;
23362;SDS011;11853;48.080;11.960;2023-11-22T10:10:25;3.92;;;3.63;;
23362;SDS011;11853;48.080;11.960;2023-11-22T10:12:55;3.40;;;3.20;;
23362;SDS011;11853;48.080;11.960;2023-11-22T10:15:21;3.60;;;3.30;;
23362;SDS011;11853;48.080;11.960;2023-11-22T10:17:57;4.10;;;3.72;;
23362;SDS011;11853;48.080;11.960;2023-11-22T10:20:35;3.70;;;3.40;;
23362;SDS011;11853;48.080;11.960;2023-11-22T10:23:00;3.95;;;3.42;;
23362;SDS011;11853;48.080;11.960;2023-11-22T10:25:26;3.65;;;3.35;;
23362;SDS011;11853;48.080;11.960;2023-11-22T10:27:52;3.63;;;3.33;;
23362;SDS011;11853;48.080;11.960;2023-11-22T10:30:18;3.38;;;3.08;;
23362;SDS011;11853;48.080;11.960;2023-11-22T10:32:46;3.47;;;3.17;;
23362;SDS011;11853;48.080;11.960;2023-11-22T10:35:12;3.10;;;2.90;;
23362;SDS011;11853;48.080;11.960;2023-11-22T10:37:41;2.83;;;2.63;;
23362;SDS011;11853;48.080;11.960;2023-11-22T10:40:11;3.10;;;2.90;;
23362;SDS011;11853;48.080;11.960;2023-11-22T10:42:39;2.42;;;2.30;;
23362;SDS011;11853;48.080;11.960;2023-11-22T10:45:07;3.58;;;3.28;;
23362;SDS011;11853;48.080;11.960;2023-11-22T10:47:37;5.03;;;4.03;;
23362;SDS011;11853;48.080;11.960;2023-11-22T10:50:05;4.18;;;3.78;;
23362;SDS011;11853;48.080;11.960;2023-11-22T10:52:33;4.72;;;4.32;;
23362;SDS011;11853;48.080;11.960;2023-11-22T10:55:02;5.82;;;5.22;;
23362;SDS011;11853;48.080;11.960;2023-11-22T10:57:40;7.43;;;5.75;;
23362;SDS011;11853;48.080;11.960;2023-11-22T11:00:12;3.92;;;3.63;;
23362;SDS011;11853;48.080;11.960;2023-11-22T11:02:45;4.50;;;3.10;;
23362;SDS011;11853;48.080;11.960;2023-11-22T11:05:15;3.20;;;3.00;;
23362;SDS011;11853;48.080;11.960;2023-11-22T11:07:44;3.78;;;3.47;;
23362;SDS011;11853;48.080;11.960;2023-11-22T11:10:17;4.18;;;3.88;;
23362;SDS011;11853;48.080;11.960;2023-11-22T11:12:45;3.33;;;3.13;;
23362;SDS011;11853;48.080;11.960;2023-11-22T11:15:11;3.88;;;3.55;;
23362;SDS011;11853;48.080;11.960;2023-11-22T11:17:38;4.30;;;3.90;;
23362;SDS011;11853;48.080;11.960;2023-11-22T11:20:05;4.45;;;4.15;;
23362;SDS011;11853;48.080;11.960;2023-11-22T11:22:32;3.90;;;3.60;;
23362;SDS011;11853;48.080;11.960;2023-11-22T11:25:03;4.07;;;3.67;;
23362;SDS011;11853;48.080;11.960;2023-11-22T11:27:32;3.97;;;3.67;;
23362;SDS011;11853;48.080;11.960;2023-11-22T11:30:01;3.35;;;3.13;;
23362;SDS011;11853;48.080;11.960;2023-11-22T11:32:47;3.08;;;2.88;;
23362;SDS011;11853;48.080;11.960;2023-11-22T11:35:17;3.35;;;3.15;;
23362;SDS011;11853;48.080;11.960;2023-11-22T11:37:46;3.25;;;3.00;;
23362;SDS011;11853;48.080;11.960;2023-11-22T11:40:25;3.85;;;3.63;;
23362;SDS011;11853;48.080;11.960;2023-11-22T11:42:52;3.50;;;3.30;;
23362;SDS011;11853;48.080;11.960;2023-11-22T11:45:19;3.28;;;2.97;;
23362;SDS011;11853;48.080;11.960;2023-11-22T11:47:45;3.20;;;2.90;;
23362;SDS011;11853;48.080;11.960;2023-11-22T11:50:12;3.35;;;3.05;;
23362;SDS011;11853;48.080;11.960;2023-11-22T11:52:38;2.80;;;2.60;;
23362;SDS011;11853;48.080;11.960;2023-11-22T11:55:04;2.60;;;2.30;;
23362;SDS011;11853;48.080;11.960;2023-11-22T11:57:31;3.20;;;3.00;;
23362;SDS011;11853;48.080;11.960;2023-11-22T11:59:57;6.82;;;3.38;;
23362;SDS011;11853;48.080;11.960;2023-11-22T12:02:24;3.38;;;3.08;;
23362;SDS011;11853;48.080;11.960;2023-11-22T12:04:50;3.20;;;3.00;;
23362;SDS011;11853;48.080;11.960;2023-11-22T12:07:15;2.63;;;2.42;;
23362;SDS011;11853;48.080;11.960;2023-11-22T12:09:41;2.95;;;2.75;;
23362;SDS011;11853;48.080;11.960;2023-11-22T12:12:06;2.85;;;2.60;;
23362;SDS011;11853;48.080;11.960;2023-11-22T12:14:32;2.70;;;2.40;;
23362;SDS011;11853;48.080;11.960;2023-11-22T12:16:58;4.18;;;3.78;;
23362;SDS011;11853;48.080;11.960;2023-11-22T12:19:25;4.78;;;4.38;;
23362;SDS011;11853;48.080;11.960;2023-11-22T12:21:53;3.00;;;2.80;;
23362;SDS011;11853;48.080;11.960;2023-11-22T12:24:19;2.47;;;2.35;;
23362;SDS011;11853;48.080;11.960;2023-11-22T12:26:45;2.35;;;2.25;;
23362;SDS011;11853;48.080;11.960;2023-11-22T12:29:13;2.83;;;2.63;;
23362;SDS011;11853;48.080;11.960;2023-11-22T12:31:49;3.80;;;2.67;;
23362;SDS011;11853;48.080;11.960;2023-11-22T12:34:18;3.05;;;2.63;;
23362;SDS011;11853;48.080;11.960;2023-11-22T12:36:45;2.80;;;2.60;;
23362;SDS011;11853;48.080;11.960;2023-11-22T12:39:12;2.30;;;2.20;;
23362;SDS011;11853;48.080;11.960;2023-11-22T12:41:44;2.70;;;2.10;;
23362;SDS011;11853;48.080;11.960;2023-11-22T12:44:15;2.60;;;2.40;;
23362;SDS011;11853;48.080;11.960;2023-11-22T12:46:51;2.60;;;2.50;;
23362;SDS011;11853;48.080;11.960;2023-11-22T12:49:24;2.80;;;2.60;;
23362;SDS011;11853;48.080;11.960;2023-11-22T12:51:51;2.42;;;2.22;;
23362;SDS011;11853;48.080;11.960;2023-11-22T12:54:19;2.83;;;2.63;;
23362;SDS011;11853;48.080;11.960;2023-11-22T12:56:49;2.70;;;2.50;;
23362;SDS011;11853;48.080;11.960;2023-11-22T12:59:16;2.45;;;2.35;;
23362;SDS011;11853;48.080;11.960;2023-11-22T13:01:43;2.42;;;2.22;;
23362;SDS011;11853;48.080;11.960;2023-11-22T13:04:09;2.28;;;2.17;;
23362;SDS011;11853;48.080;11.960;2023-11-22T13:06:36;2.65;;;2.45;;
23362;SDS011;11853;48.080;11.960;2023-11-22T13:09:02;2.58;;;2.38;;
23362;SDS011;11853;48.080;11.960;2023-11-22T13:11:28;2.50;;;2.30;;
23362;SDS011;11853;48.080;11.960;2023-11-22T13:13:54;2.55;;;2.45;;
23362;SDS011;11853;48.080;11.960;2023-11-22T13:16:19;3.00;;;2.80;;
23362;SDS011;11853;48.080;11.960;2023-11-22T13:18:45;2.80;;;2.60;;
23362;SDS011;11853;48.080;11.960;2023-11-22T13:21:13;2.83;;;2.60;;
23362;SDS011;11853;48.080;11.960;2023-11-22T13:23:38;3.13;;;2.92;;
23362;SDS011;11853;48.080;11.960;2023-11-22T13:26:04;2.72;;;2.53;;
23362;SDS011;11853;48.080;11.960;2023-11-22T13:28:30;5.18;;;3.55;;
23362;SDS011;11853;48.080;11.960;2023-11-22T13:30:56;3.75;;;3.38;;
23362;SDS011;11853;48.080;11.960;2023-11-22T13:33:22;2.95;;;2.75;;
23362;SDS011;11853;48.080;11.960;2023-11-22T13:35:47;3.03;;;2.83;;
23362;SDS011;11853;48.080;11.960;2023-11-22T13:38:13;3.28;;;2.97;;
23362;SDS011;11853;48.080;11.960;2023-11-22T13:40:41;3.20;;;3.00;;
23362;SDS011;11853;48.080;11.960;2023-11-22T13:43:11;2.90;;;2.70;;
23362;SDS011;11853;48.080;11.960;2023-11-22T13:45:39;3.13;;;2.92;;
23362;SDS011;11853;48.080;11.960;2023-11-22T13:48:06;2.78;;;2.58;;
23362;SDS011;11853;48.080;11.960;2023-11-22T13:50:35;3.53;;;3.28;;
23362;SDS011;11853;48.080;11.960;2023-11-22T13:53:02;3.28;;;2.95;;
23362;SDS011;11853;48.080;11.960;2023-11-22T13:55:29;3.45;;;3.15;;
23362;SDS011;11853;48.080;11.960;2023-11-22T13:57:56;3.10;;;2.90;;
23362;SDS011;11853;48.080;11.960;2023-11-22T14:00:27;3.47;;;3.15;;
23362;SDS011;11853;48.080;11.960;2023-11-22T14:02:58;3.45;;;2.92;;
23362;SDS011;11853;48.080;11.960;2023-11-22T14:07:56;2.90;;;2.70;;
23362;SDS011;11853;48.080;11.960;2023-11-22T14:10:22;2.83;;;2.63;;
23362;SDS011;11853;48.080;11.960;2023-11-22T14:12:48;3.17;;;2.97;;
23362;SDS011;11853;48.080;11.960;2023-11-22T14:15:14;3.00;;;2.80;;
23362;SDS011;11853;48.080;11.960;2023-11-22T14:17:40;3.30;;;3.10;;
23362;SDS011;11853;48.080;11.960;2023-11-22T14:20:07;3.47;;;3.17;;
23362;SDS011;11853;48.080;11.960;2023-11-22T14:22:36;3.78;;;3.47;;
23362;SDS011;11853;48.080;11.960;2023-11-22T14:25:02;3.40;;;3.10;;
23362;SDS011;11853;48.080;11.960;2023-11-22T14:27:32;2.75;;;2.58;;
23362;SDS011;11853;48.080;11.960;2023-11-22T14:29:59;2.85;;;2.65;;
23362;SDS011;11853;48.080;11.960;2023-11-22T14:32:25;3.83;;;3.47;;
23362;SDS011;11853;48.080;11.960;2023-11-22T14:34:50;3.10;;;2.90;;
23362;SDS011;11853;48.080;11.960;2023-11-22T14:37:18;3.60;;;3.10;;